HomeShort term forecast

Short term forecast

Graphical weather forecast for the next 48 hours for Montreal:
Short term forecast
This weather forecast is automatically refreshed every 3 hours.

Hourly Experimental Forecast for the next 48 hours

Overall summary: Partly cloudy until this afternoon.

 Date & Hour   Temp   Feel   Baro   Hum   Speed & Bearing   Wind Gust   Precip.%   Precip.   Visibility   Cloud cover   Conditions 
 20/07/2018 - 07:00  18.1°C  18.1°C  1020.2 hPa  72%  0.7 km/h   6.6 km/h  15%  0.05 mm/h  16.1km  0%  Clear 
 20/07/2018 - 08:00  20.2°C  20.2°C  1020.4 hPa  64%  2.1 km/h   5.9 km/h  5%  0.03 mm/h  16.1km  2%  Clear 
 20/07/2018 - 09:00  22.4°C  22.4°C  1020.6 hPa  56%  3.2 km/h   5.5 km/h  0%  --  16.1km  8%  Clear 
 20/07/2018 - 10:00  24.3°C  24.3°C  1020.5 hPa  51%  4.0 km/h   6.5 km/h  0%  --  16.1km  18%  Clear 
 20/07/2018 - 11:00  26.1°C  26.1°C  1020.4 hPa  47%  5.3 km/h   7.2 km/h  0%  --  16.1km  35%  Partly Cloudy 
 20/07/2018 - 12:00  27.6°C  27.6°C  1020.1 hPa  43%  6.7 km/h   8.6 km/h  0%  --  16.1km  39%  Partly Cloudy 
 20/07/2018 - 13:00  28.7°C  28.7°C  1019.7 hPa  40%  7.6 km/h   10.9 km/h  0%  --  16.1km  28%  Partly Cloudy 
 20/07/2018 - 14:00  29.7°C  29.7°C  1019.3 hPa  37%  8.5 km/h   12.0 km/h  0%  --  16.1km  16%  Clear 
 20/07/2018 - 15:00  30.5°C  30.5°C  1018.9 hPa  36%  9.5 km/h   12.8 km/h  0%  --  16.1km  7%  Clear 
 20/07/2018 - 16:00  31.0°C  31.0°C  1018.4 hPa  35%  10.4 km/h   13.4 km/h  0%  --  16.1km  3%  Clear 
 20/07/2018 - 17:00  31.0°C  31.0°C  1018.1 hPa  35%  11.2 km/h   14.1 km/h  0%  --  16.1km  0%  Clear 
 20/07/2018 - 18:00  30.6°C  30.6°C  1017.8 hPa  36%  11.5 km/h   15.7 km/h  0%  --  16.1km  0%  Clear 
 20/07/2018 - 19:00  29.8°C  29.8°C  1017.7 hPa  37%  11.3 km/h   17.3 km/h  0%  --  16.1km  0%  Clear 
 20/07/2018 - 20:00  28.1°C  28.2°C  1017.8 hPa  45%  10.9 km/h   18.9 km/h  0%  --  16.1km  0%  Clear 
 20/07/2018 - 21:00  26.5°C  26.5°C  1017.8 hPa  49%  10.5 km/h   21.6 km/h  0%  --  16.1km  0%  Clear 
 20/07/2018 - 22:00  24.9°C  24.9°C  1018.1 hPa  53%  10.5 km/h   24.7 km/h  0%  --  16.1km  0%  Clear 
 20/07/2018 - 23:00  23.5°C  23.5°C  1018.3 hPa  56%  10.2 km/h   25.6 km/h  0%  --  16.1km  7%  Clear 
 21/07/2018 - 00:00  22.6°C  22.6°C  1018.5 hPa  59%  9.2 km/h   22.1 km/h  0%  --  16.1km  2%  Clear 
 21/07/2018 - 01:00  21.7°C  21.7°C  1018.7 hPa  63%  8.0 km/h   16.4 km/h  0%  --  16.1km  3%  Clear 
 21/07/2018 - 02:00  20.8°C  20.8°C  1018.9 hPa  66%  7.1 km/h   11.9 km/h  0%  --  16.1km  2%  Clear 
 21/07/2018 - 03:00  19.8°C  19.8°C  1018.9 hPa  69%  6.7 km/h   10.1 km/h  0%  --  16.1km  3%  Clear 
 21/07/2018 - 04:00  18.9°C  18.9°C  1019.0 hPa  72%  6.6 km/h   9.5 km/h  0%  --  16.1km  5%  Clear 
 21/07/2018 - 05:00  18.4°C  18.4°C  1019.1 hPa  74%  6.6 km/h   9.5 km/h  0%  --  16.1km  8%  Clear 
 21/07/2018 - 06:00  18.9°C  18.9°C  1019.4 hPa  72%  6.5 km/h   10.1 km/h  0%  --  16.1km  15%  Clear 
 21/07/2018 - 07:00  20.3°C  20.3°C  1019.7 hPa  68%  6.5 km/h   11.3 km/h  0%  --  16.1km  24%  Clear 
 21/07/2018 - 08:00  22.0°C  22.0°C  1019.9 hPa  62%  6.9 km/h   12.4 km/h  0%  --  16.1km  32%  Partly Cloudy 
 21/07/2018 - 09:00  23.8°C  23.8°C  1019.9 hPa  57%  7.7 km/h   12.9 km/h  0%  --  16.1km  38%  Partly Cloudy 
 21/07/2018 - 10:00  25.5°C  25.5°C  1019.8 hPa  53%  8.2 km/h   13.1 km/h  0%  --  16.1km  43%  Partly Cloudy 
 21/07/2018 - 11:00  27.1°C  27.4°C  1019.6 hPa  49%  9.0 km/h   13.9 km/h  0%  --  16.1km  44%  Partly Cloudy 
 21/07/2018 - 12:00  28.2°C  28.3°C  1019.3 hPa  46%  10.8 km/h   16.2 km/h  0%  --  16.1km  41%  Partly Cloudy 
 21/07/2018 - 13:00  28.8°C  28.8°C  1018.8 hPa  44%  13.3 km/h   19.2 km/h  0%  --  16.1km  34%  Partly Cloudy 
 21/07/2018 - 14:00  29.5°C  29.5°C  1018.2 hPa  42%  15.0 km/h   21.3 km/h  0%  --  16.1km  59%  Partly Cloudy 
 21/07/2018 - 15:00  30.0°C  30.0°C  1017.8 hPa  41%  15.4 km/h   22.0 km/h  0%  --  16.1km  33%  Partly Cloudy 
 21/07/2018 - 16:00  30.4°C  30.4°C  1017.3 hPa  40%  14.9 km/h   21.9 km/h  0%  --  16.1km  33%  Partly Cloudy 
 21/07/2018 - 17:00  30.1°C  30.1°C  1017.0 hPa  41%  14.2 km/h   21.2 km/h  0%  --  16.1km  37%  Partly Cloudy 
 21/07/2018 - 18:00  29.6°C  29.6°C  1016.9 hPa  44%  12.7 km/h   18.9 km/h  0%  --  16.1km  58%  Partly Cloudy 
 21/07/2018 - 19:00  28.7°C  29.0°C  1017.0 hPa  47%  10.8 km/h   16.0 km/h  0%  --  16.1km  47%  Partly Cloudy 
 21/07/2018 - 20:00  27.6°C  28.1°C  1017.0 hPa  51%  8.9 km/h   15.7 km/h  0%  --  16.1km  83%  Mostly Cloudy 
 21/07/2018 - 21:00  26.2°C  26.2°C  1017.2 hPa  53%  8.4 km/h   21.0 km/h  0%  --  16.1km  87%  Mostly Cloudy 
 21/07/2018 - 22:00  24.7°C  24.7°C  1017.5 hPa  55%  9.2 km/h   28.7 km/h  0%  --  16.1km  90%  Mostly Cloudy 
 21/07/2018 - 23:00  23.3°C  23.3°C  1017.8 hPa  56%  10.0 km/h   33.8 km/h  0%  --  16.1km  92%  Mostly Cloudy 
 22/07/2018 - 00:00  22.3°C  22.3°C  1018.0 hPa  56%  10.1 km/h   33.8 km/h  0%  --  16.1km  90%  Mostly Cloudy 
 22/07/2018 - 01:00  21.4°C  21.4°C  1017.9 hPa  56%  9.9 km/h   31.2 km/h  0%  --  16.1km  88%  Mostly Cloudy 
 22/07/2018 - 02:00  20.6°C  20.6°C  1018.0 hPa  57%  9.4 km/h   28.0 km/h  0%  --  16.1km  86%  Mostly Cloudy 
 22/07/2018 - 03:00  19.5°C  19.5°C  1017.9 hPa  60%  8.3 km/h   24.0 km/h  0%  --  16.1km  88%  Mostly Cloudy 
 22/07/2018 - 04:00  18.6°C  18.6°C  1017.8 hPa  65%  7.1 km/h   19.5 km/h  0%  --  16.1km  88%  Mostly Cloudy 
 22/07/2018 - 05:00  17.8°C  17.8°C  1017.7 hPa  69%  6.8 km/h   17.1 km/h  0%  --  16.1km  94%  Overcast 
 22/07/2018 - 06:00  18.0°C  18.0°C  1017.8 hPa  69%  8.0 km/h   18.3 km/h  1%  0.02 mm/h  16.1km  96%  Overcast 
Test

 

Past weather and reports

Past weatherFind in this section the past weather conditions, weather archive, graphics, reports and statistics.

Current conditions

Current weather condition for MontrealAll you need to know about the current weather conditions for Montreal. Weather data is updated every 10 minutes.

Weather forecast

Current Montreal weatherSince 2004, celinium.com website has provided accurate weather forecast for Montreal's island.